createdAt,value
2023-11-27T00:00:04.720Z,100852.28
2023-11-27T00:02:35.172Z,100857.31
2023-11-27T00:05:05.918Z,100852.56
2023-11-27T00:07:34.196Z,100847.97
2023-11-27T00:10:02.750Z,100864.75
2023-11-27T00:12:32.266Z,100865.66
2023-11-27T00:15:00.422Z,100854.50
2023-11-27T00:17:29.016Z,100860.66
2023-11-27T00:19:57.225Z,100857.31
2023-11-27T00:22:25.345Z,100844.63
2023-11-27T00:24:53.453Z,100862.31
2023-11-27T00:27:22.499Z,100865.00
2023-11-27T00:29:51.979Z,100862.56
2023-11-27T00:32:21.520Z,100868.59
2023-11-27T00:34:49.702Z,100874.63
2023-11-27T00:37:18.243Z,100871.94
2023-11-27T00:39:46.357Z,100873.47
2023-11-27T00:42:14.893Z,100878.63
2023-11-27T00:44:45.538Z,100876.72
2023-11-27T00:47:15.181Z,100884.41
2023-11-27T00:49:43.289Z,100879.94
2023-11-27T00:52:11.386Z,100889.31
2023-11-27T00:54:39.466Z,100872.28
2023-11-27T00:57:08.298Z,100863.84
2023-11-27T00:59:41.960Z,100885.63
2023-11-27T01:02:10.645Z,100887.66
2023-11-27T01:04:41.304Z,100904.09
2023-11-27T01:07:10.538Z,100897.16
2023-11-27T01:09:39.955Z,100881.28
2023-11-27T01:12:08.375Z,100797.56
2023-11-27T01:14:36.447Z,100897.94
2023-11-27T01:17:04.572Z,100903.84
2023-11-27T01:19:33.133Z,100894.34
2023-11-27T01:22:02.651Z,100894.22
2023-11-27T01:24:30.918Z,100889.63
2023-11-27T01:26:58.994Z,100909.88
2023-11-27T01:29:27.071Z,100896.91
2023-11-27T01:31:55.589Z,100902.59
2023-11-27T01:34:23.705Z,100905.69
2023-11-27T01:36:51.805Z,100915.06
2023-11-27T01:39:21.316Z,100915.81
2023-11-27T01:41:49.394Z,100906.31
2023-11-27T01:44:17.457Z,100916.59
2023-11-27T01:46:49.089Z,100912.34
2023-11-27T01:49:19.331Z,100901.88
2023-11-27T01:51:51.367Z,100903.13
2023-11-27T01:54:21.652Z,100904.00
2023-11-27T01:56:50.916Z,100876.13
2023-11-27T01:59:20.161Z,100902.09
2023-11-27T02:01:48.832Z,100906.44
2023-11-27T02:04:17.336Z,100902.09
2023-11-27T02:06:45.515Z,100889.56
2023-11-27T02:09:14.690Z,100838.22
2023-11-27T02:11:50.326Z,100903.13
2023-11-27T02:14:18.468Z,100879.97
2023-11-27T02:16:47.462Z,100883.66
2023-11-27T02:19:16.062Z,100903.88
2023-11-27T02:21:44.873Z,100907.34
2023-11-27T02:24:14.350Z,100903.88
2023-11-27T02:26:42.430Z,100910.69
2023-11-27T02:29:10.637Z,100905.56
2023-11-27T02:31:39.515Z,100904.31
2023-11-27T02:34:07.796Z,100911.59
2023-11-27T02:36:39.768Z,100906.56
2023-11-27T02:39:08.560Z,100916.97
2023-11-27T02:41:39.090Z,100917.03
2023-11-27T02:44:07.857Z,100924.66
2023-11-27T02:46:36.858Z,100930.56
2023-11-27T02:49:05.160Z,100919.84
2023-11-27T02:51:33.559Z,100933.13
2023-11-27T02:54:01.641Z,100936.09
2023-11-27T02:56:29.680Z,100946.75
2023-11-27T02:58:59.112Z,100930.19
2023-11-27T03:01:28.258Z,100944.44
2023-11-27T03:03:56.574Z,100942.00
2023-11-27T03:06:24.729Z,100950.59
2023-11-27T03:08:52.937Z,100959.19
2023-11-27T03:11:21.002Z,100951.88
2023-11-27T03:13:49.100Z,100954.06
2023-11-27T03:16:18.634Z,100948.66
2023-11-27T03:18:47.342Z,100952.50
2023-11-27T03:21:22.239Z,100946.34
2023-11-27T03:23:50.477Z,100951.09
2023-11-27T03:26:19.550Z,100954.41
2023-11-27T03:28:47.756Z,100954.41
2023-11-27T03:31:16.015Z,100960.34
2023-11-27T03:33:45.563Z,100961.09
2023-11-27T03:36:14.137Z,100956.88
2023-11-27T03:38:42.210Z,100928.06
2023-11-27T03:41:18.824Z,100950.59
2023-11-27T03:43:47.042Z,100955.59
2023-11-27T03:46:15.227Z,100961.63
2023-11-27T03:48:43.352Z,100966.75
2023-11-27T03:51:12.854Z,100958.94
2023-11-27T03:53:40.948Z,100921.56
2023-11-27T03:56:09.880Z,100940.66
2023-11-27T03:58:37.963Z,100975.25
2023-11-27T04:01:06.546Z,100980.38
2023-11-27T04:03:34.917Z,100978.56
2023-11-27T04:06:05.741Z,100969.84
2023-11-27T04:08:35.513Z,100968.25
2023-11-27T04:11:03.922Z,100977.97
2023-11-27T04:13:32.233Z,100982.75
2023-11-27T04:16:00.752Z,100997.13
2023-11-27T04:18:29.143Z,100985.69
2023-11-27T04:20:57.194Z,100982.09
2023-11-27T04:23:25.235Z,100991.59
2023-11-27T04:25:54.878Z,100977.13
2023-11-27T04:28:23.129Z,101000.84
2023-11-27T04:30:51.370Z,100999.69
2023-11-27T04:33:20.381Z,101006.22
2023-11-27T04:35:49.587Z,100987.50
2023-11-27T04:38:18.652Z,101008.41
2023-11-27T04:40:46.852Z,101013.41
2023-11-27T04:43:16.451Z,101013.16
2023-11-27T04:45:44.741Z,101008.41
2023-11-27T04:48:12.818Z,101011.13
2023-11-27T04:50:40.885Z,101016.25
2023-11-27T04:53:09.043Z,101014.56
2023-11-27T04:55:37.127Z,101016.38
2023-11-27T04:58:05.235Z,101011.13
2023-11-27T05:00:34.750Z,101014.56
2023-11-27T05:03:02.927Z,100963.28
2023-11-27T05:05:31.018Z,101010.84
2023-11-27T05:07:59.102Z,101004.44
2023-11-27T05:10:29.364Z,101013.41
2023-11-27T05:12:57.800Z,101019.06
2023-11-27T05:15:25.892Z,101000.19
2023-11-27T05:17:56.075Z,100993.66
2023-11-27T05:20:24.301Z,101003.03
2023-11-27T05:22:52.815Z,101009.28
2023-11-27T05:25:20.995Z,100990.03
2023-11-27T05:27:49.494Z,100999.03
2023-11-27T05:30:18.175Z,101011.44
2023-11-27T05:32:46.271Z,100996.44
2023-11-27T05:35:15.801Z,101000.41
2023-11-27T05:37:43.987Z,101002.56
2023-11-27T05:40:13.207Z,101004.25
2023-11-27T05:42:42.153Z,101012.56
2023-11-27T05:45:12.475Z,101013.19
2023-11-27T05:47:41.575Z,101013.19
2023-11-27T05:50:13.012Z,101010.88
2023-11-27T05:52:42.543Z,101018.81
2023-11-27T05:55:11.267Z,101021.88
2023-11-27T05:57:39.399Z,101019.94
2023-11-27T06:00:08.908Z,101021.63
2023-11-27T06:02:38.147Z,101020.59
2023-11-27T06:05:07.150Z,101023.03
2023-11-27T06:07:35.438Z,101024.28
2023-11-27T06:10:05.412Z,100968.19
2023-11-27T06:12:33.662Z,101018.97
2023-11-27T06:15:01.735Z,101011.75
2023-11-27T06:17:29.842Z,101039.56
2023-11-27T06:19:58.000Z,101035.97
2023-11-27T06:22:27.420Z,101034.31
2023-11-27T06:24:57.908Z,101017.84
2023-11-27T06:27:28.093Z,101001.81
2023-11-27T06:29:56.314Z,101041.72
2023-11-27T06:32:24.563Z,101031.81
2023-11-27T06:34:53.425Z,101032.94
2023-11-27T06:37:21.523Z,101046.38
2023-11-27T06:39:49.760Z,101041.13
2023-11-27T06:42:17.853Z,101043.41
2023-11-27T06:44:47.328Z,101036.97
2023-11-27T06:47:15.438Z,101047.97
2023-11-27T06:49:45.162Z,101059.75
2023-11-27T06:52:14.397Z,101029.66
2023-11-27T06:54:42.490Z,101049.22
2023-11-27T06:57:10.707Z,101044.19
2023-11-27T06:59:45.064Z,101051.72
2023-11-27T07:02:15.184Z,101048.19
2023-11-27T07:04:43.397Z,101069.56
2023-11-27T07:07:11.868Z,101056.19
2023-11-27T07:09:39.973Z,101001.84
2023-11-27T07:12:10.123Z,101057.66
2023-11-27T07:14:38.493Z,101059.78
2023-11-27T07:17:06.937Z,101070.34
2023-11-27T07:19:36.573Z,101071.72
2023-11-27T07:22:05.459Z,101074.00
2023-11-27T07:24:33.610Z,101077.94
2023-11-27T07:27:03.562Z,101069.22
2023-11-27T07:29:31.649Z,101068.19
2023-11-27T07:31:59.800Z,101069.84
2023-11-27T07:34:28.793Z,101072.25
2023-11-27T07:36:58.858Z,101066.84
2023-11-27T07:39:27.271Z,101058.47
2023-11-27T07:41:55.394Z,101074.53
2023-11-27T07:44:26.395Z,101067.00
2023-11-27T07:46:54.713Z,101061.72
2023-11-27T07:49:23.198Z,101056.91
2023-11-27T07:51:51.294Z,101073.84
2023-11-27T07:54:21.752Z,101064.84
2023-11-27T07:56:50.105Z,101077.31
2023-11-27T07:59:18.240Z,101073.72
2023-11-27T08:01:46.897Z,101071.16
2023-11-27T08:04:15.238Z,101053.59
2023-11-27T08:06:45.377Z,101071.28
2023-11-27T08:09:13.531Z,101073.84
2023-11-27T08:11:43.216Z,101076.69
2023-11-27T08:14:11.851Z,101079.81
2023-11-27T08:16:39.972Z,101080.09
2023-11-27T08:19:08.100Z,101073.19
2023-11-27T08:21:37.028Z,101065.38
2023-11-27T08:24:07.351Z,101074.50
2023-11-27T08:26:40.814Z,101078.88
2023-11-27T08:29:11.943Z,101076.31
2023-11-27T08:31:41.619Z,101069.41
2023-11-27T08:34:09.867Z,101074.03
2023-11-27T08:36:39.578Z,101083.66
2023-11-27T08:39:11.398Z,101075.91
2023-11-27T08:41:39.992Z,101070.59
2023-11-27T08:44:09.921Z,101070.38
2023-11-27T08:46:39.643Z,101073.63
2023-11-27T08:49:07.764Z,101065.81
2023-11-27T08:51:35.927Z,101080.34
2023-11-27T08:54:04.095Z,101077.44
2023-11-27T08:56:35.055Z,101080.75
2023-11-27T08:59:03.467Z,101083.72
2023-11-27T09:01:31.691Z,101094.78
2023-11-27T09:04:01.658Z,101093.19
2023-11-27T09:06:30.108Z,101084.47
2023-11-27T09:08:58.279Z,101099.78
2023-11-27T09:11:26.864Z,101081.19
2023-11-27T09:13:55.162Z,101092.47
2023-11-27T09:16:23.593Z,101095.44
2023-11-27T09:18:51.696Z,101096.06
2023-11-27T09:21:21.212Z,101056.00
2023-11-27T09:23:49.495Z,101106.00
2023-11-27T09:26:17.566Z,101100.41
2023-11-27T09:28:48.832Z,101102.00
2023-11-27T09:31:18.829Z,101088.00
2023-11-27T09:33:47.054Z,101098.28
2023-11-27T09:36:16.654Z,101097.94
2023-11-27T09:38:46.233Z,101095.38
2023-11-27T09:41:14.706Z,101092.84
2023-11-27T09:43:42.868Z,101093.34
2023-11-27T09:46:18.383Z,101096.16
2023-11-27T09:48:48.598Z,101099.34
2023-11-27T09:51:17.419Z,101093.28
2023-11-27T09:53:52.064Z,101101.44
2023-11-27T09:56:28.438Z,101096.16
2023-11-27T09:59:00.933Z,101089.19
2023-11-27T10:01:30.755Z,101074.03
2023-11-27T10:04:01.367Z,101091.75
2023-11-27T10:06:35.269Z,101092.63
2023-11-27T10:09:09.218Z,101086.47
2023-11-27T10:11:38.102Z,101089.41
2023-11-27T10:14:29.890Z,101090.25
2023-11-27T10:16:59.857Z,101094.28
2023-11-27T10:19:28.467Z,101088.00
2023-11-27T10:21:57.713Z,101090.78
2023-11-27T10:24:27.385Z,101095.75
2023-11-27T10:26:55.498Z,101085.13
2023-11-27T10:29:27.781Z,101092.38
2023-11-27T10:31:59.681Z,101060.50
2023-11-27T10:34:28.605Z,101088.50
2023-11-27T10:36:59.262Z,101090.03
2023-11-27T10:39:33.829Z,101095.03
2023-11-27T10:42:04.048Z,101092.31
2023-11-27T10:44:36.276Z,101101.81
2023-11-27T10:47:09.257Z,101096.94
2023-11-27T10:49:40.225Z,101099.66
2023-11-27T10:52:10.551Z,100966.13
2023-11-27T10:54:42.161Z,101068.59
2023-11-27T10:57:11.723Z,101074.34
2023-11-27T10:59:43.482Z,101059.41
2023-11-27T11:02:14.081Z,101095.09
2023-11-27T11:04:52.918Z,101085.88
2023-11-27T11:07:23.975Z,101086.03
2023-11-27T11:09:56.743Z,101084.63
2023-11-27T11:12:26.153Z,101043.56
2023-11-27T11:14:55.234Z,101085.75
2023-11-27T11:17:35.596Z,101062.41
2023-11-27T11:20:16.196Z,101045.41
2023-11-27T11:22:54.145Z,101070.84
2023-11-27T11:25:30.995Z,101070.22
2023-11-27T11:28:07.168Z,101067.66
2023-11-27T11:30:36.976Z,101046.63
2023-11-27T11:33:07.898Z,101045.72
2023-11-27T11:35:37.911Z,101053.59
2023-11-27T11:38:17.554Z,101031.38
2023-11-27T11:40:49.862Z,101056.81
2023-11-27T11:43:18.517Z,101048.22
2023-11-27T11:45:47.598Z,101029.63
2023-11-27T11:48:16.578Z,101043.78
2023-11-27T11:50:44.760Z,101047.28
2023-11-27T11:53:38.436Z,101046.16
2023-11-27T11:56:20.795Z,101041.84
2023-11-27T11:58:52.199Z,101043.53
2023-11-27T12:01:21.295Z,101046.09
2023-11-27T12:03:50.071Z,101020.97
2023-11-27T12:06:18.311Z,101041.91
2023-11-27T12:08:47.277Z,101043.69
2023-11-27T12:11:17.108Z,101037.16
2023-11-27T12:13:46.173Z,101025.34
2023-11-27T12:16:15.409Z,101039.69
2023-11-27T12:18:45.845Z,101036.09
2023-11-27T12:21:16.496Z,101039.69
2023-11-27T12:23:47.636Z,101042.38
2023-11-27T12:26:24.116Z,101043.53
2023-11-27T12:28:52.931Z,101034.16
2023-11-27T12:31:22.624Z,101038.91
2023-11-27T12:33:51.276Z,101041.88
2023-11-27T12:36:22.665Z,101022.91
2023-11-27T12:38:54.005Z,101028.94
2023-11-27T12:41:34.331Z,101026.38
2023-11-27T12:44:17.608Z,101023.56
2023-11-27T12:46:51.502Z,101019.97
2023-11-27T12:49:22.287Z,101020.34
2023-11-27T12:51:53.407Z,101022.25
2023-11-27T12:54:24.447Z,101024.41
2023-11-27T12:57:00.455Z,101026.16
2023-11-27T12:59:29.118Z,101030.56
2023-11-27T13:01:59.627Z,101035.38
2023-11-27T13:04:31.354Z,101016.88
2023-11-27T13:07:00.628Z,101034.44
2023-11-27T13:09:28.738Z,101035.06
2023-11-27T13:11:58.248Z,101029.69
2023-11-27T13:14:26.338Z,101036.94
2023-11-27T13:16:54.952Z,101035.00
2023-11-27T13:19:26.189Z,101034.88
2023-11-27T13:21:56.829Z,101017.94
2023-11-27T13:24:31.537Z,101022.56
2023-11-27T13:27:08.829Z,101023.38
2023-11-27T13:29:36.893Z,101027.47
2023-11-27T13:32:05.185Z,101031.34
2023-11-27T13:34:38.341Z,101025.59
2023-11-27T13:37:10.049Z,101022.25
2023-11-27T13:39:41.709Z,101006.22
2023-11-27T13:42:11.239Z,101021.13
2023-11-27T13:44:39.359Z,101022.81
2023-11-27T13:47:10.769Z,101016.66
2023-11-27T13:49:42.260Z,101000.34
2023-11-27T13:52:17.454Z,101029.09
2023-11-27T13:54:50.229Z,101026.25
2023-11-27T13:57:28.937Z,101026.25
2023-11-27T13:59:59.159Z,100865.56
2023-11-27T14:02:29.491Z,101017.00
2023-11-27T14:05:07.883Z,101012.59
2023-11-27T14:07:42.267Z,101014.84
2023-11-27T14:10:23.765Z,101015.41
2023-11-27T14:13:02.122Z,101015.06
2023-11-27T14:15:40.495Z,101008.56
2023-11-27T14:18:38.990Z,101017.97
2023-11-27T14:21:33.287Z,100992.28
2023-11-27T14:24:05.505Z,101021.13
2023-11-27T14:26:47.983Z,101010.19
2023-11-27T14:29:22.886Z,100989.25
2023-11-27T14:31:52.367Z,100987.78
2023-11-27T14:34:26.721Z,100893.50
2023-11-27T14:36:55.200Z,101007.06
2023-11-27T14:39:27.494Z,101001.66
2023-11-27T14:41:56.520Z,101009.66
2023-11-27T14:44:27.221Z,100996.31
2023-11-27T14:46:55.925Z,100995.88
2023-11-27T14:49:26.663Z,100948.50
2023-11-27T14:52:00.281Z,100949.88
2023-11-27T14:54:28.931Z,100980.16
2023-11-27T14:56:57.515Z,100980.63
2023-11-27T14:59:27.203Z,100968.03
2023-11-27T15:01:56.239Z,100966.53
2023-11-27T15:04:25.135Z,100964.28
2023-11-27T15:06:53.404Z,100963.09
2023-11-27T15:09:24.028Z,100944.59
2023-11-27T15:11:53.232Z,100970.63
2023-11-27T15:14:22.001Z,100969.94
2023-11-27T15:16:52.842Z,100972.00
2023-11-27T15:19:22.037Z,100978.63
2023-11-27T15:21:50.855Z,100972.50
2023-11-27T15:24:19.143Z,100966.81
2023-11-27T15:26:52.024Z,100967.25
2023-11-27T15:29:20.466Z,100976.25
2023-11-27T15:31:50.311Z,100979.28
2023-11-27T15:34:19.985Z,100980.03
2023-11-27T15:36:50.833Z,100985.13
2023-11-27T15:39:24.453Z,100979.28
2023-11-27T15:41:53.943Z,100989.94
2023-11-27T15:44:22.057Z,101001.81
2023-11-27T15:46:50.936Z,101001.66
2023-11-27T15:49:20.498Z,100990.41
2023-11-27T15:51:48.629Z,100994.16
2023-11-27T15:54:17.739Z,100977.66
2023-11-27T15:56:46.388Z,100952.78
2023-11-27T15:59:15.503Z,100991.03
2023-11-27T16:01:43.784Z,100995.84
2023-11-27T16:04:13.643Z,100988.63
2023-11-27T16:06:43.526Z,100996.75
2023-11-27T16:09:11.896Z,101000.66
2023-11-27T16:11:41.633Z,100967.38
2023-11-27T16:14:14.396Z,100978.03
2023-11-27T16:16:46.373Z,100985.81
2023-11-27T16:19:15.876Z,100988.66
2023-11-27T16:21:46.221Z,100981.78
2023-11-27T16:24:15.264Z,100985.66
2023-11-27T16:26:43.949Z,100984.63
2023-11-27T16:29:12.340Z,100976.38
2023-11-27T16:31:40.731Z,100962.28
2023-11-27T16:34:08.967Z,100977.72
2023-11-27T16:36:37.020Z,100982.81
2023-11-27T16:39:09.218Z,100970.38
2023-11-27T16:41:37.284Z,100987.47
2023-11-27T16:44:05.617Z,100982.97
2023-11-27T16:46:35.022Z,100945.66
2023-11-27T16:49:04.067Z,100975.03
2023-11-27T16:51:33.166Z,100971.28
2023-11-27T16:54:01.452Z,100977.88
2023-11-27T16:56:31.979Z,100980.28
2023-11-27T16:59:00.072Z,100945.19
2023-11-27T17:01:28.463Z,100970.53
2023-11-27T17:04:01.151Z,100976.38
2023-11-27T17:06:29.780Z,100911.00
2023-11-27T17:08:58.518Z,100963.34
2023-11-27T17:11:26.740Z,100969.19
2023-11-27T17:13:56.836Z,100958.84
2023-11-27T17:16:25.480Z,100952.69
2023-11-27T17:18:53.727Z,100944.91
2023-11-27T17:21:21.826Z,100943.53
2023-11-27T17:23:50.015Z,100945.19
2023-11-27T17:26:19.445Z,100934.53
2023-11-27T17:28:48.840Z,100942.03
2023-11-27T17:31:18.424Z,100936.94
2023-11-27T17:33:49.199Z,100929.59
2023-11-27T17:36:17.297Z,100920.00
2023-11-27T17:38:45.541Z,100888.06
2023-11-27T17:41:14.441Z,100924.66
2023-11-27T17:43:43.387Z,100918.50
2023-11-27T17:46:12.936Z,100920.91
2023-11-27T17:48:45.170Z,100918.94
2023-11-27T17:51:14.527Z,100884.91
2023-11-27T17:53:42.624Z,100912.81
2023-11-27T17:56:11.568Z,100911.00
2023-11-27T17:58:40.313Z,100866.63
2023-11-27T18:01:09.933Z,100911.59
2023-11-27T18:03:40.753Z,100794.88
2023-11-27T18:06:11.418Z,100902.59
2023-11-27T18:08:39.456Z,100899.00
2023-11-27T18:11:11.699Z,100897.81
2023-11-27T18:13:42.109Z,100901.41
2023-11-27T18:16:12.385Z,100899.59
2023-11-27T18:18:40.796Z,100890.31
2023-11-27T18:21:11.284Z,100885.81
2023-11-27T18:23:39.363Z,100890.16
2023-11-27T18:26:10.596Z,100879.97
2023-11-27T18:28:39.441Z,100891.53
2023-11-27T18:31:08.104Z,100891.53
2023-11-27T18:33:36.170Z,100897.53
2023-11-27T18:36:04.574Z,100891.22
2023-11-27T18:38:35.505Z,100879.69
2023-11-27T18:41:03.627Z,100830.09
2023-11-27T18:43:32.087Z,100879.38
2023-11-27T18:46:00.322Z,100881.47
2023-11-27T18:48:28.726Z,100872.31
2023-11-27T18:50:56.867Z,100867.50
2023-11-27T18:53:25.753Z,100871.09
2023-11-27T18:55:55.355Z,100870.66
2023-11-27T18:58:23.573Z,100825.84
2023-11-27T19:00:53.393Z,100863.59
2023-11-27T19:03:23.657Z,100859.09
2023-11-27T19:05:51.934Z,100863.00
2023-11-27T19:08:20.030Z,100856.88
2023-11-27T19:10:48.143Z,100864.97
2023-11-27T19:13:17.691Z,100818.41
2023-11-27T19:15:52.575Z,100847.75
2023-11-27T19:18:20.739Z,100825.44
2023-11-27T19:20:48.783Z,100856.91
2023-11-27T19:23:16.867Z,100845.22
2023-11-27T19:25:44.999Z,100850.16
2023-11-27T19:28:13.206Z,100847.03
2023-11-27T19:30:44.738Z,100831.59
2023-11-27T19:33:12.987Z,100835.03
2023-11-27T19:35:41.143Z,100837.28
2023-11-27T19:38:16.712Z,100845.06
2023-11-27T19:40:45.132Z,100840.28
2023-11-27T19:43:13.543Z,100827.53
2023-11-27T19:45:43.807Z,100756.09
2023-11-27T19:48:12.301Z,100813.91
2023-11-27T19:50:40.644Z,100768.69
2023-11-27T19:53:10.217Z,100825.88
2023-11-27T19:55:38.646Z,100819.28
2023-11-27T19:58:07.378Z,100812.84
2023-11-27T20:00:35.457Z,100770.47
2023-11-27T20:03:06.270Z,100803.69
2023-11-27T20:05:36.650Z,100810.88
2023-11-27T20:08:04.972Z,100793.19
2023-11-27T20:10:33.242Z,100737.06
2023-11-27T20:13:01.377Z,100791.22
2023-11-27T20:15:29.525Z,100797.38
2023-11-27T20:17:57.623Z,100791.81
2023-11-27T20:20:28.176Z,100780.28
2023-11-27T20:22:56.257Z,100771.13
2023-11-27T20:25:25.394Z,100778.59
2023-11-27T20:27:53.511Z,100776.34
2023-11-27T20:30:24.559Z,100772.16
2023-11-27T20:32:53.912Z,100768.69
2023-11-27T20:35:23.029Z,100767.94
2023-11-27T20:37:52.590Z,100766.16
2023-11-27T20:40:20.757Z,100751.78
2023-11-27T20:42:50.918Z,100756.84
2023-11-27T20:45:19.127Z,100753.53
2023-11-27T20:47:47.867Z,100755.34
2023-11-27T20:50:16.235Z,100758.50
2023-11-27T20:52:44.401Z,100750.81
2023-11-27T20:55:14.133Z,100755.44
2023-11-27T20:57:42.737Z,100745.25
2023-11-27T21:00:12.637Z,100741.81
2023-11-27T21:02:44.211Z,100735.94
2023-11-27T21:05:13.356Z,100723.34
2023-11-27T21:07:42.332Z,100718.53
2023-11-27T21:10:12.682Z,100710.28
2023-11-27T21:12:43.473Z,100711.16
2023-11-27T21:15:12.703Z,100703.66
2023-11-27T21:17:41.384Z,100708.00
2023-11-27T21:20:13.649Z,100701.72
2023-11-27T21:22:43.628Z,100706.63
2023-11-27T21:25:14.699Z,100699.13
2023-11-27T21:27:44.341Z,100704.50
2023-11-27T21:30:17.228Z,100654.69
2023-11-27T21:32:47.693Z,100695.34
2023-11-27T21:35:17.732Z,100701.47
2023-11-27T21:37:46.066Z,100661.97
2023-11-27T21:40:14.292Z,100665.22
2023-11-27T21:42:47.030Z,100668.66
2023-11-27T21:45:15.384Z,100681.09
2023-11-27T21:47:43.573Z,100665.78
2023-11-27T21:50:12.175Z,100659.91
2023-11-27T21:52:40.917Z,100659.16
2023-11-27T21:55:10.290Z,100657.66
2023-11-27T21:57:41.256Z,100654.47
2023-11-27T22:00:12.172Z,100646.81
2023-11-27T22:02:42.313Z,100644.41
2023-11-27T22:05:13.730Z,100597.19
2023-11-27T22:07:42.828Z,100643.78
2023-11-27T22:10:11.997Z,100634.63
2023-11-27T22:12:41.807Z,100626.50
2023-11-27T22:15:14.586Z,100602.44
2023-11-27T22:17:42.774Z,100571.00
2023-11-27T22:20:12.769Z,100590.84
2023-11-27T22:22:42.567Z,100608.28
2023-11-27T22:25:10.728Z,100609.31
2023-11-27T22:27:38.915Z,100570.03
2023-11-27T22:30:08.529Z,100578.09
2023-11-27T22:32:38.350Z,100589.13
2023-11-27T22:35:07.308Z,100585.94
2023-11-27T22:37:37.501Z,100582.22
2023-11-27T22:40:08.954Z,100556.31
2023-11-27T22:42:38.133Z,100566.22
2023-11-27T22:45:07.356Z,100582.72
2023-11-27T22:47:35.523Z,100578.22
2023-11-27T22:50:05.564Z,100571.63
2023-11-27T22:52:34.297Z,100576.22
2023-11-27T22:55:03.636Z,100575.00
2023-11-27T22:57:31.800Z,100568.78
2023-11-27T23:00:00.056Z,100558.22
2023-11-27T23:02:30.104Z,100557.00
2023-11-27T23:04:58.302Z,100570.16
2023-11-27T23:07:27.835Z,100550.38
2023-11-27T23:09:58.284Z,100552.84
2023-11-27T23:12:26.842Z,100555.53
2023-11-27T23:14:55.507Z,100548.91
2023-11-27T23:17:23.766Z,100482.13
2023-11-27T23:19:53.099Z,100535.53
2023-11-27T23:22:21.331Z,100516.34
2023-11-27T23:24:50.985Z,100529.44
2023-11-27T23:27:19.090Z,100522.81
2023-11-27T23:29:47.175Z,100513.63
2023-11-27T23:32:15.425Z,100517.19
2023-11-27T23:34:43.884Z,100492.66
2023-11-27T23:37:12.344Z,100511.56
2023-11-27T23:39:40.581Z,100468.41
2023-11-27T23:42:11.175Z,100486.72
2023-11-27T23:44:40.296Z,100490.78
2023-11-27T23:47:08.781Z,100487.59
2023-11-27T23:49:39.149Z,100490.41
2023-11-27T23:52:09.631Z,100482.63
2023-11-27T23:54:37.693Z,100477.16
2023-11-27T23:57:08.780Z,100479.97
2023-11-27T23:59:39.249Z,100476.78
